Map

Track Data

SID SEASON NUMBER BASIN SUBBASIN NAME ISO_TIME NATURE LAT LON WMO_WIND WMO_PRES WMO_AGENCY TRACK_TYPE DIST2LAND LANDFALL IFLAG USA_AGENCY USA_ATCF_ID USA_LAT USA_LON USA_RECORD USA_STATUS USA_WIND USA_PRES USA_SSHS USA_R34_NE USA_R34_SE USA_R34_SW USA_R34_NW USA_R50_NE USA_R50_SE USA_R50_SW USA_R50_NW USA_R64_NE USA_R64_SE USA_R64_SW USA_R64_NW USA_POCI USA_ROCI USA_RMW USA_EYE TOKYO_LAT TOKYO_LON TOKYO_GRADE TOKYO_WIND TOKYO_PRES TOKYO_R50_DIR TOKYO_R50_LONG TOKYO_R50_SHORT TOKYO_R30_DIR TOKYO_R30_LONG TOKYO_R30_SHORT TOKYO_LAND CMA_LAT CMA_LON CMA_CAT CMA_WIND CMA_PRES HKO_LAT HKO_LON HKO_CAT HKO_WIND HKO_PRES NEWDELHI_LAT NEWDELHI_LON NEWDELHI_GRADE NEWDELHI_WIND NEWDELHI_PRES NEWDELHI_CI NEWDELHI_DP NEWDELHI_POCI REUNION_LAT REUNION_LON REUNION_TYPE REUNION_WIND REUNION_PRES REUNION_TNUM REUNION_CI REUNION_RMW REUNION_R34_NE REUNION_R34_SE REUNION_R34_SW REUNION_R34_NW REUNION_R50_NE REUNION_R50_SE REUNION_R50_SW REUNION_R50_NW REUNION_R64_NE REUNION_R64_SE REUNION_R64_SW REUNION_R64_NW BOM_LAT BOM_LON BOM_TYPE BOM_WIND BOM_PRES BOM_TNUM BOM_CI BOM_RMW BOM_R34_NE BOM_R34_SE BOM_R34_SW BOM_R34_NW BOM_R50_NE BOM_R50_SE BOM_R50_SW BOM_R50_NW BOM_R64_NE BOM_R64_SE BOM_R64_SW BOM_R64_NW BOM_ROCI BOM_POCI BOM_EYE BOM_POS_METHOD BOM_PRES_METHOD NADI_LAT NADI_LON NADI_CAT NADI_WIND NADI_PRES WELLINGTON_LAT WELLINGTON_LON WELLINGTON_WIND WELLINGTON_PRES DS824_LAT DS824_LON DS824_STAGE DS824_WIND DS824_PRES TD9636_LAT TD9636_LON TD9636_STAGE TD9636_WIND TD9636_PRES TD9635_LAT TD9635_LON TD9635_WIND TD9635_PRES TD9635_ROCI NEUMANN_LAT NEUMANN_LON NEUMANN_CLASS NEUMANN_WIND NEUMANN_PRES MLC_LAT MLC_LON MLC_CLASS MLC_WIND MLC_PRES USA_GUST BOM_GUST BOM_GUST_PER REUNION_GUST REUNION_GUST_PER USA_SEAHGT USA_SEARAD_NE USA_SEARAD_SE USA_SEARAD_SW USA_SEARAD_NW STORM_SPEED STORM_DIR
1985240N16256 1985 78 EP MM PAULINE 1985-08-27 18:00:00 TS 15.8000 -104.100 25 hurdat_epa main 285 285 O_________O___ hurdat_epa EP161985 15.8000 -104.100 TD 25 -1 15.8000 -104.100 1 25 10 256
1985240N16256 1985 78 EP MM PAULINE 1985-08-27 21:00:00 TS 15.6862 -104.589 main 313 313 P_________P___ EP161985 15.6853 -104.593 TD 25 -1 15.6888 -104.580 1 25 9 251
1985240N16256 1985 78 EP MM PAULINE 1985-08-28 00:00:00 TS 15.5000 -105.000 25 hurdat_epa main 351 351 O_________O___ hurdat_epa EP161985 15.5000 -105.000 TD 25 -1 15.5000 -105.000 1 25 8 234
1985240N16256 1985 78 EP MM PAULINE 1985-08-28 03:00:00 TS 15.1912 -105.284 main 396 396 P_________P___ EP161985 15.1948 -105.272 TD 25 -1 15.1804 -105.320 1 25 9 215
1985240N16256 1985 78 EP MM PAULINE 1985-08-28 06:00:00 TS 14.7918 -105.518 25 hurdat_epa main 445 445 O_________P___ hurdat_epa EP161985 14.8000 -105.500 TD 25 -1 14.7673 -105.574 1 25 10 210
1985240N16256 1985 78 EP MM PAULINE 1985-08-28 09:00:00 TS 14.3482 -105.787 main 510 510 P_________P___ EP161985 14.3574 -105.777 TD 25 -1 14.3206 -105.816 1 25 11 212
1985240N16256 1985 78 EP MM PAULINE 1985-08-28 12:00:00 TS 13.9000 -106.100 25 hurdat_epa main 565 565 O_________O___ hurdat_epa EP161985 13.9000 -106.100 TD 25 -1 13.9000 -106.100 1 25 11 218
1985240N16256 1985 78 EP MM PAULINE 1985-08-28 15:00:00 TS 13.4793 -106.475 main 625 625 P_________P___ EP161985 13.4549 -106.470 TD 25 -1 13.5526 -106.492 1 25 11 226
1985240N16256 1985 78 EP MM PAULINE 1985-08-28 18:00:00 TS 13.1363 -106.908 25 hurdat_epa main 686 686 O_________P___ hurdat_epa EP161985 13.1000 -106.900 TD 25 -1 13.2450 -106.933 1 25 11 238
1985240N16256 1985 78 EP MM PAULINE 1985-08-28 21:00:00 TS 12.9262 -107.390 main 734 734 P_________P___ EP161985 12.9050 -107.385 TD 25 -1 12.9900 -107.407 1 25 10 251
1985240N16256 1985 78 EP MM PAULINE 1985-08-29 00:00:00 TS 12.8000 -107.900 25 hurdat_epa main 775 775 O_________O___ hurdat_epa EP161985 12.8000 -107.900 TD 25 -1 12.8000 -107.900 1 25 10 256
1985240N16256 1985 78 EP MM PAULINE 1985-08-29 03:00:00 TS 12.6743 -108.396 main 817 817 P_________P___ EP161985 12.6774 -108.400 TD 25 -1 12.6649 -108.385 1 25 10 258
1985240N16256 1985 78 EP MM PAULINE 1985-08-29 06:00:00 TS 12.5987 -108.896 25 hurdat_epa main 858 858 O_________P___ hurdat_epa EP161985 12.6000 -108.900 TD 25 -1 12.5948 -108.885 1 25 10 265
1985240N16256 1985 78 EP MM PAULINE 1985-08-29 09:00:00 TS 12.5830 -109.398 main 887 887 P_________P___ EP161985 12.5849 -109.400 TD 25 -1 12.5773 -109.392 1 25 10 270
1985240N16256 1985 78 EP MM PAULINE 1985-08-29 12:00:00 TS 12.6000 -109.900 25 hurdat_epa main 918 918 O_________O___ hurdat_epa EP161985 12.6000 -109.900 TD 25 -1 12.6000 -109.900 1 25 10 270
1985240N16256 1985 78 EP MM PAULINE 1985-08-29 15:00:00 TS 12.5908 -110.403 main 950 950 P_________P___ EP161985 12.5774 -110.400 TD 25 -1 12.6308 -110.412 1 25 10 271
1985240N16256 1985 78 EP MM PAULINE 1985-08-29 18:00:00 TS 12.6243 -110.906 25 hurdat_epa main 985 984 O_________P___ hurdat_epa EP161985 12.6000 -110.900 TD 25 -1 12.6974 -110.922 1 25 10 279
1985240N16256 1985 78 EP MM PAULINE 1985-08-29 21:00:00 TS 12.7544 -111.411 main 1005 1005 P_________P___ EP161985 12.7424 -111.407 TD 25 -1 12.7902 -111.421 1 25 10 286
1985240N16256 1985 78 EP MM PAULINE 1985-08-30 00:00:00 TS 12.9000 -111.900 25 hurdat_epa main 1035 1035 O_________O___ hurdat_epa EP161985 12.9000 -111.900 TD 25 -1 12.9000 -111.900 1 25 9 283
1985240N16256 1985 78 EP MM PAULINE 1985-08-30 03:00:00 TS 12.9593 -112.358 main 1065 1065 P_________P___ EP161985 12.9424 -112.365 TD 25 -1 13.0101 -112.334 1 25 9 279
1985240N16256 1985 78 EP MM PAULINE 1985-08-30 06:00:00 TS 13.0336 -112.788 25 hurdat_epa main 1096 1096 O_________P___ hurdat_epa EP161985 13.0000 -112.800 TD 25 -1 13.1343 -112.750 1 25 8 287
1985240N16256 1985 78 EP MM PAULINE 1985-08-30 09:00:00 TS 13.2052 -113.186 main 1112 1112 P_________P___ EP161985 13.1848 -113.192 TD 25 -1 13.2663 -113.166 1 25 9 295
1985240N16256 1985 78 EP MM PAULINE 1985-08-30 12:00:00 TS 13.4000 -113.600 25 hurdat_epa main 1128 1125 O_________O___ hurdat_epa EP161985 13.4000 -113.600 TD 25 -1 13.4000 -113.600 1 25 9 292
1985240N16256 1985 78 EP MM PAULINE 1985-08-30 15:00:00 TS 13.5580 -114.081 main 1126 1126 P_________P___ EP161985 13.5650 -114.085 TD 25 -1 13.5370 -114.070 1 27 10 287
1985240N16256 1985 78 EP MM PAULINE 1985-08-30 18:00:00 TS 13.6930 -114.591 25 hurdat_epa main 1137 1136 O_________P___ hurdat_epa EP161985 13.7000 -114.600 TD 25 -1 13.6722 -114.562 1 30 10 284
1985240N16256 1985 78 EP MM PAULINE 1985-08-30 21:00:00 TS 13.8102 -115.088 main 1151 1151 P_________P___ EP161985 13.8149 -115.093 TD 30 -1 13.7963 -115.073 1 32 10 282
1985240N16256 1985 78 EP MM PAULINE 1985-08-31 00:00:00 TS 13.9000 -115.600 35 hurdat_epa main 1167 1167 O_________O___ hurdat_epa EP161985 13.9000 -115.600 TS 35 0 13.9000 -115.600 2 35 10 279
1985240N16256 1985 78 EP MM PAULINE 1985-08-31 03:00:00 TS 13.9650 -116.142 main 1185 1185 P_________P___ EP161985 13.9574 -116.143 TS 35 0 13.9877 -116.140 2 36 11 276
1985240N16256 1985 78 EP MM PAULINE 1985-08-31 06:00:00 TS 14.0131 -116.698 35 hurdat_epa main 1220 1220 O_________P___ hurdat_epa EP161985 14.0000 -116.700 TS 35 0 14.0523 -116.692 2 37 11 276
1985240N16256 1985 78 EP MM PAULINE 1985-08-31 09:00:00 TS 14.0713 -117.244 main 1242 1242 P_________P___ EP161985 14.0648 -117.242 TS 37 0 14.0908 -117.249 2 38 11 275
1985240N16256 1985 78 EP MM PAULINE 1985-08-31 12:00:00 TS 14.1000 -117.800 40 hurdat_epa main 1282 1282 O_________O___ hurdat_epa EP161985 14.1000 -117.800 TS 40 0 14.1000 -117.800 2 40 11 270
1985240N16256 1985 78 EP MM PAULINE 1985-08-31 15:00:00 TS 14.0654 -118.400 main 1323 1323 P_________P___ EP161985 14.0651 -118.415 TS 42 0 14.0664 -118.353 2 41 11 265
1985240N16256 1985 78 EP MM PAULINE 1985-08-31 18:00:00 TS 14.0018 -118.974 45 hurdat_epa main 1374 1374 O_________P___ hurdat_epa EP161985 14.0000 -119.000 TS 45 0 14.0074 -118.896 2 42 10 263
1985240N16256 1985 78 EP MM PAULINE 1985-08-31 21:00:00 TS 13.9429 -119.464 main 1419 1419 P_________P___ EP161985 13.9423 -119.480 TS 45 0 13.9446 -119.415 2 43 9 264
1985240N16256 1985 78 EP MM PAULINE 1985-09-01 00:00:00 TS 13.9000 -119.900 45 hurdat_epa main 1449 1449 O_________O___ hurdat_epa EP161985 13.9000 -119.900 TS 45 0 13.9000 -119.900 2 45 8 266
1985240N16256 1985 78 EP MM PAULINE 1985-09-01 03:00:00 TS 13.8874 -120.315 main 1480 1480 P_________P___ EP161985 13.8849 -120.308 TS 45 0 13.8948 -120.336 2 46 8 270
1985240N16256 1985 78 EP MM PAULINE 1985-09-01 06:00:00 TS 13.9030 -120.709 45 hurdat_epa main 1506 1506 O_________P___ hurdat_epa EP161985 13.9000 -120.700 TS 45 0 13.9118 -120.737 2 47 8 274
1985240N16256 1985 78 EP MM PAULINE 1985-09-01 09:00:00 TS 13.9438 -121.111 main 1532 1529 P_________P___ EP161985 13.9425 -121.107 TS 47 0 13.9480 -121.120 2 48 8 277
1985240N16256 1985 78 EP MM PAULINE 1985-09-01 12:00:00 TS 14.0000 -121.500 50 hurdat_epa main 1549 1549 O_________O___ hurdat_epa EP161985 14.0000 -121.500 TS 50 0 14.0000 -121.500 2 50 7 278
1985240N16256 1985 78 EP MM PAULINE 1985-09-01 15:00:00 TS 14.0448 -121.851 main 1576 1567 P_________P___ EP161985 14.0423 -121.843 TS 47 0 14.0520 -121.876 2 48 7 279
1985240N16256 1985 78 EP MM PAULINE 1985-09-01 18:00:00 TS 14.1048 -122.214 45 hurdat_epa main 1588 1588 O_________P___ hurdat_epa EP161985 14.1000 -122.200 TS 45 0 14.1192 -122.255 2 47 8 281
1985240N16256 1985 78 EP MM PAULINE 1985-09-01 21:00:00 TS 14.1948 -122.629 main 1608 1608 P_________P___ EP161985 14.1924 -122.620 TS 45 0 14.2019 -122.657 2 46 9 283
1985240N16256 1985 78 EP MM PAULINE 1985-09-02 00:00:00 TS 14.3000 -123.100 45 hurdat_epa main 1636 1636 O_________O___ hurdat_epa EP161985 14.3000 -123.100 TS 45 0 14.3000 -123.100 2 45 10 282
1985240N16256 1985 78 EP MM PAULINE 1985-09-02 03:00:00 TS 14.3949 -123.625 main 1665 1665 P_________P___ EP161985 14.3925 -123.635 TS 45 0 14.4024 -123.595 2 43 11 281
1985240N16256 1985 78 EP MM PAULINE 1985-09-02 06:00:00 TS 14.5049 -124.183 45 hurdat_epa main 1702 1702 O_________P___ hurdat_epa EP161985 14.5000 -124.200 TS 45 0 14.5197 -124.133 2 42 11 283
1985240N16256 1985 78 EP MM PAULINE 1985-09-02 09:00:00 TS 14.6391 -124.727 main 1733 1733 P_________P___ EP161985 14.6348 -124.735 TS 42 0 14.6522 -124.704 2 41 11 285
1985240N16256 1985 78 EP MM PAULINE 1985-09-02 12:00:00 TS 14.8000 -125.300 40 hurdat_epa main 1766 1766 O_________O___ hurdat_epa EP161985 14.8000 -125.300 TS 40 0 14.8000 -125.300 2 40 12 287
1985240N16256 1985 78 EP MM PAULINE 1985-09-02 15:00:00 TS 14.9902 -125.936 main 1801 1801 P_________P___ EP161985 15.0000 -125.942 TS 40 0 14.9606 -125.916 2 41 13 287
1985240N16256 1985 78 EP MM PAULINE 1985-09-02 18:00:00 TS 15.1838 -126.587 40 hurdat_epa main 1839 1839 O_________P___ hurdat_epa EP161985 15.2000 -126.600 TS 40 0 15.1350 -126.550 2 42 13 286
1985240N16256 1985 78 EP MM PAULINE 1985-09-02 21:00:00 TS 15.3473 -127.213 main 1872 1863 P_________P___ EP161985 15.3574 -127.223 TS 42 0 15.3169 -127.184 2 43 12 285
1985240N16256 1985 78 EP MM PAULINE 1985-09-03 00:00:00 TS 15.5000 -127.800 45 hurdat_epa main 1897 1897 O_________O___ hurdat_epa EP161985 15.5000 -127.800 TS 45 0 15.5000 -127.800 2 45 11 286
1985240N16256 1985 78 EP MM PAULINE 1985-09-03 03:00:00 TS 15.6482 -128.320 main 1925 1917 P_________P___ EP161985 15.6422 -128.300 TS 45 0 15.6663 -128.380 2 46 10 287
1985240N16256 1985 78 EP MM PAULINE 1985-09-03 06:00:00 TS 15.8086 -128.835 45 hurdat_epa main 1946 1946 O_________P___ hurdat_epa EP161985 15.8000 -128.800 TS 45 0 15.8343 -128.938 2 47 11 288
1985240N16256 1985 78 EP MM PAULINE 1985-09-03 09:00:00 TS 15.9914 -129.425 main 1976 1976 P_________P___ EP161985 15.9851 -129.408 TS 47 0 16.0102 -129.477 2 48 12 289
1985240N16256 1985 78 EP MM PAULINE 1985-09-03 12:00:00 TS 16.2000 -130.000 50 hurdat_epa main 2007 2007 O_________O___ hurdat_epa EP161985 16.2000 -130.000 TS 50 0 16.2000 -130.000 2 50 11 294
1985240N16256 1985 78 EP MM PAULINE 1985-09-03 15:00:00 TS 16.4428 -130.470 main 2032 2025 P_________P___ EP161985 16.4496 -130.458 TS 50 0 16.4221 -130.506 2 51 10 299
1985240N16256 1985 78 EP MM PAULINE 1985-09-03 18:00:00 TS 16.6891 -130.925 50 hurdat_epa main 2043 2043 O_________P___ hurdat_epa EP161985 16.7000 -130.900 TS 50 0 16.6566 -131.000 2 52 11 297
1985240N16256 1985 78 EP MM PAULINE 1985-09-03 21:00:00 TS 16.9138 -131.455 main 2078 2078 P_________P___ EP161985 16.9225 -131.442 TS 52 0 16.8878 -131.494 2 53 11 292
1985240N16256 1985 78 EP MM PAULINE 1985-09-04 00:00:00 TS 17.1000 -132.000 55 hurdat_epa main 2107 2107 O_________O___ hurdat_epa EP161985 17.1000 -132.000 TS 55 0 17.1000 -132.000 2 55 10 287
1985240N16256 1985 78 EP MM PAULINE 1985-09-04 03:00:00 TS 17.2186 -132.502 main 2142 2142 P_________P___ EP161985 17.1997 -132.493 TS 55 0 17.2752 -132.528 2 57 10 283
1985240N16256 1985 78 EP MM PAULINE 1985-09-04 06:00:00 TS 17.3323 -133.018 55 hurdat_epa main 2179 2179 O_________P___ hurdat_epa EP161985 17.3000 -133.000 TS 55 0 17.4294 -133.071 2 60 11 286
1985240N16256 1985 78 EP MM PAULINE 1985-09-04 09:00:00 TS 17.5116 -133.601 main 2218 2179 P_________P___ EP161985 17.4925 -133.592 TS 60 0 17.5689 -133.628 2 62 12 288
1985240N16256 1985 78 EP MM PAULINE 1985-09-04 12:00:00 TS 17.7000 -134.200 65 hurdat_epa main 2179 2123 O_________O___ hurdat_epa EP161985 17.7000 -134.200 HU 65 1 17.7000 -134.200 3 65 11 288
1985240N16256 1985 78 EP MM PAULINE 1985-09-04 15:00:00 TS 17.8603 -134.745 main 2123 2059 P_________P___ EP161985 17.8646 -134.743 HU 65 1 17.8473 -134.753 3 65 11 286
1985240N16256 1985 78 EP MM PAULINE 1985-09-04 18:00:00 TS 17.9964 -135.306 65 hurdat_epa main 2059 1994 O_________P___ hurdat_epa EP161985 18.0000 -135.300 HU 65 1 17.9858 -135.325 3 65 12 283
1985240N16256 1985 78 EP MM PAULINE 1985-09-04 21:00:00 TS 18.1183 -135.924 main 1994 1919 P_________P___ EP161985 18.1223 -135.920 HU 65 1 18.1064 -135.934 3 65 12 279
1985240N16256 1985 78 EP MM PAULINE 1985-09-05 00:00:00 TS 18.2000 -136.600 65 hurdat_epa main 1919 1846 O_________O___ hurdat_epa EP161985 18.2000 -136.600 HU 65 1 18.2000 -136.600 4 65 13 274
1985240N16256 1985 78 EP MM PAULINE 1985-09-05 03:00:00 TS 18.2181 -137.336 main 1846 1762 P_________P___ EP161985 18.2072 -137.320 HU 70 1 18.2508 -137.384 4 67 15 271
1985240N16256 1985 78 EP MM PAULINE 1985-09-05 06:00:00 TS 18.2186 -138.129 75 hurdat_epa main 1762 1668 O_________P___ hurdat_epa EP161985 18.2000 -138.100 HU 75 1 18.2742 -138.216 4 70 16 271
1985240N16256 1985 78 EP MM PAULINE 1985-09-05 09:00:00 TS 18.2480 -139.012 main 1668 1583 P_________P___ EP161985 18.2355 -139.002 HU 75 1 18.2852 -139.040 4 72 16 273
1985240N16256 1985 78 EP MM PAULINE 1985-09-05 12:00:00 TS 18.3000 -139.800 75 hurdat_epa main 1583 1529 O_________O___ hurdat_epa EP161985 18.3000 -139.800 HU 75 1 18.3000 -139.800 4 75 12 277
1985240N16256 1985 78 EP CP PAULINE 1985-09-05 15:00:00 TS 18.3922 -140.273 main 1529 1486 P_________P___ EP161985 18.4065 -140.222 HU 75 1 18.3493 -140.426 4 75 9 281
1985240N16256 1985 78 EP CP PAULINE 1985-09-05 18:00:00 TS 18.4719 -140.725 75 hurdat_epa main 1486 1423 O_________P___ hurdat_epa EP161985 18.5000 -140.600 HU 75 1 18.4055 -140.982 4 75 11 275
1985240N16256 1985 78 EP CP PAULINE 1985-09-05 21:00:00 TS 18.4904 -141.377 main 1412 1350 P_________P___ EP161985 18.5155 -141.285 HU 75 1 18.4590 -141.498 4 75 12 271
1985240N16256 1985 78 EP CP PAULINE 1985-09-06 00:00:00 TS 18.4842 -142.032 75 hurdat_epa main 1350 1297 O_________O___ hurdat_epa EP161985 18.5000 -142.000 HU 75 1 18.5000 -142.000 4 75 11 269
1985240N16256 1985 78 EP CP PAULINE 1985-09-06 03:00:00 TS 18.4745 -142.573 main 1287 1234 P_________P___ EP161985 18.4995 -142.522 HU 75 1 18.4817 -142.553 4 75 10 269
1985240N16256 1985 78 EP CP PAULINE 1985-09-06 06:00:00 TS 18.4710 -143.079 75 hurdat_epa main 1234 1182 O_________P___ hurdat_epa EP161985 18.5000 -143.000 HU 75 1 18.4549 -143.096 4 75 10 270
1985240N16256 1985 78 EP CP PAULINE 1985-09-06 09:00:00 TS 18.4725 -143.620 main 1182 1130 P_________P___ EP161985 18.4924 -143.543 HU 75 1 18.4506 -143.616 4 75 10 272
1985240N16256 1985 78 EP CP PAULINE 1985-09-06 12:00:00 TS 18.5000 -144.160 75 hurdat_epa main 1119 1067 O_________O___ hurdat_epa EP161985 18.5000 -144.100 HU 75 1 18.5000 -144.100 4 75 10 274
1985240N16256 1985 78 EP CP PAULINE 1985-09-06 15:00:00 TS 18.5394 -144.721 main 1067 1012 P_________P___ EP161985 18.4977 -144.695 HU 75 1 18.6342 -144.584 4 75 10 279
1985240N16256 1985 78 EP CP PAULINE 1985-09-06 18:00:00 TS 18.6650 -145.205 75 hurdat_epa main 1012 978 O_________P___ hurdat_epa EP161985 18.6000 -145.200 HU 75 1 18.8250 -145.026 4 75 9 298
1985240N16256 1985 78 EP CP PAULINE 1985-09-06 21:00:00 TS 18.9510 -145.542 main 977 944 P_________P___ EP161985 18.9273 -145.517 HU 75 1 19.0532 -145.406 4 75 8 319
1985240N16256 1985 78 EP CP PAULINE 1985-09-07 00:00:00 TS 19.2800 -145.760 75 hurdat_epa main 944 932 O_________O___ hurdat_epa EP161985 19.3000 -145.700 HU 75 1 19.3000 -145.700 4 75 7 328
1985240N16256 1985 78 EP CP PAULINE 1985-09-07 03:00:00 TS 19.5083 -145.909 main 932 921 P_________P___ EP161985 19.5074 -145.823 HU 75 1 19.5270 -145.899 4 75 5 333
1985240N16256 1985 78 EP CP PAULINE 1985-09-07 06:00:00 TS 19.7339 -146.003 75 hurdat_epa main 921 911 O_________P___ hurdat_epa EP161985 19.7000 -145.900 HU 75 1 19.7694 -146.013 4 75 5 340
1985240N16256 1985 78 EP CP PAULINE 1985-09-07 09:00:00 TS 20.0164 -146.102 main 912 902 P_________P___ EP161985 19.9850 -146.007 HU 75 1 20.0272 -146.071 4 75 6 344
1985240N16256 1985 78 EP CP PAULINE 1985-09-07 12:00:00 TS 20.3200 -146.180 75 hurdat_epa main 903 903 O_________O___ hurdat_epa EP161985 20.3000 -146.100 HU 75 1 20.3000 -146.100 4 75 6 348
1985240N16256 1985 78 EP CP PAULINE 1985-09-07 15:00:00 TS 20.6099 -146.244 main 906 896 P_________P___ EP161985 20.6000 -146.165 HU 75 1 20.5572 -146.155 4 72 6 351
1985240N16256 1985 78 EP CP PAULINE 1985-09-07 18:00:00 TS 20.9065 -146.278 75 hurdat_epa main 900 900 O_________P___ hurdat_epa EP161985 20.9000 -146.200 HU 75 1 20.8325 -146.188 4 70 6 356
1985240N16256 1985 78 EP CP PAULINE 1985-09-07 21:00:00 TS 21.2033 -146.279 main 906 906 P_________P___ EP161985 21.1850 -146.208 HU 70 1 21.1416 -146.202 4 67 6 0
1985240N16256 1985 78 EP CP PAULINE 1985-09-08 00:00:00 TS 21.5400 -146.260 65 hurdat_epa main 912 912 O_________O___ hurdat_epa EP161985 21.5000 -146.200 HU 65 1 21.5000 -146.200 4 65 7 2
1985240N16256 1985 78 EP CP PAULINE 1985-09-08 03:00:00 TS 21.9364 -146.245 main 933 933 P_________P___ EP161985 21.8625 -146.207 HU 65 1 21.9247 -146.190 4 62 9 3
1985240N16256 1985 78 EP CP PAULINE 1985-09-08 06:00:00 TS 22.3995 -146.213 65 hurdat_epa main 949 949 O_________P___ hurdat_epa EP161985 22.3000 -146.200 HU 65 1 22.3976 -146.165 4 60 10 5
1985240N16256 1985 78 EP CP PAULINE 1985-09-08 09:00:00 TS 22.9408 -146.153 main 968 968 P_________P___ EP161985 22.8500 -146.158 HU 60 0 22.8966 -146.133 4 57 11 7
1985240N16256 1985 78 EP CP PAULINE 1985-09-08 12:00:00 TS 23.4800 -146.080 55 hurdat_epa main 1004 1004 O_________O___ hurdat_epa EP161985 23.4000 -146.100 TS 55 0 23.4000 -146.100 2 55 10 8
1985240N16256 1985 78 EP CP PAULINE 1985-09-08 15:00:00 TS 23.9118 -146.007 main 1033 1033 P_________P___ EP161985 23.8000 -146.043 TS 50 0 23.8790 -146.075 2 50 9 8
1985240N16256 1985 78 EP CP PAULINE 1985-09-08 18:00:00 TS 24.3315 -145.950 45 hurdat_epa main 1062 1062 O_________P___ hurdat_epa EP161985 24.2000 -146.000 TS 45 0 24.3575 -146.050 2 45 9 4
1985240N16256 1985 78 EP CP PAULINE 1985-09-08 21:00:00 TS 24.8219 -145.933 main 1090 1090 P_________P___ EP161985 24.7350 -146.000 TS 40 0 24.8322 -146.025 2 40 10 0
1985240N16256 1985 78 EP CP PAULINE 1985-09-09 00:00:00 TS 25.3200 -145.920 35 hurdat_epa main 1119 1119 O_________O___ hurdat_epa EP161985 25.3000 -146.000 TS 35 0 25.3000 -146.000 2 35 10 4
1985240N16256 1985 78 EP CP PAULINE 1985-09-09 03:00:00 TS 25.7804 -145.859 main 1149 1149 P_________P___ EP161985 25.8225 -145.950 TS 32 -1 25.7568 -145.959 2 33 9 7
1985240N16256 1985 78 EP CP PAULINE 1985-09-09 06:00:00 TS 26.2214 -145.804 30 hurdat_epa main 1182 1182 O_________P___ hurdat_epa EP161985 26.3000 -145.900 TD 30 -1 26.2068 -145.920 2 32 9 4
1985240N16256 1985 78 EP CP PAULINE 1985-09-09 09:00:00 TS 26.6477 -145.790 main 1208 1208 P_________P___ EP161985 26.7075 -145.885 TD 30 -1 26.6534 -145.896 2 31 9 360
1985240N16256 1985 78 EP CP PAULINE 1985-09-09 12:00:00 TS 27.0800 -145.820 30 hurdat_epa main 1242 1242 O_________O___ hurdat_epa EP161985 27.1000 -145.900 TD 30 -1 27.1000 -145.900 1 30 9 354
1985240N16256 1985 78 EP CP PAULINE 1985-09-09 15:00:00 TS 27.5409 -145.897 main 1263 1263 P_________P___ EP161985 27.5350 -145.942 TD 30 -1 27.5492 -145.940 1 30 10 351
1985240N16256 1985 78 EP CP PAULINE 1985-09-09 18:00:00 TS 28.0200 -146.000 30 hurdat_epa main 1291 O_________O___ hurdat_epa EP161985 28.0000 -146.000 TD 30 -1 28.0000 -146.000 1 30 10 349

About IBTrACS Database

This database is a web-friendly format of International Best Track Archive for Climate Stewardship (IBTrACS), a global best track data archive curated by NOAA dating back to 1842.

Updated: 2021-12-06